createdAt,value
2022-12-24T00:01:37.468Z,100675.75
2022-12-24T00:04:06.308Z,100673.78
2022-12-24T00:06:34.759Z,100659.50
2022-12-24T00:09:03.166Z,100668.63
2022-12-24T00:11:31.522Z,100673.19
2022-12-24T00:13:59.937Z,100660.03
2022-12-24T00:16:29.772Z,100670.78
2022-12-24T00:18:58.190Z,100661.44
2022-12-24T00:21:26.480Z,100663.63
2022-12-24T00:23:55.021Z,100663.63
2022-12-24T00:26:23.463Z,100675.16
2022-12-24T00:28:52.246Z,100678.22
2022-12-24T00:31:20.933Z,100667.31
2022-12-24T00:33:50.688Z,100664.22
2022-12-24T00:36:20.731Z,100657.13
2022-12-24T00:38:49.369Z,100667.94
2022-12-24T00:41:29.051Z,100679.53
2022-12-24T00:44:00.489Z,100669.09
2022-12-24T00:46:30.160Z,100676.41
2022-12-24T00:49:00.005Z,100686.44
2022-12-24T00:51:28.700Z,100683.81
2022-12-24T00:53:57.336Z,100691.91
2022-12-24T00:56:25.821Z,100691.13
2022-12-24T00:58:55.783Z,100711.63
2022-12-24T01:01:25.051Z,100717.03
2022-12-24T01:04:14.411Z,100718.28
2022-12-24T01:06:43.374Z,100717.50
2022-12-24T01:09:12.141Z,100734.13
2022-12-24T01:11:40.609Z,100733.00
2022-12-24T01:14:08.971Z,100741.09
2022-12-24T01:16:37.258Z,100743.44
2022-12-24T01:19:05.930Z,100751.56
2022-12-24T01:21:34.254Z,100736.81
2022-12-24T01:24:04.234Z,100743.41
2022-12-24T01:26:32.563Z,100748.34
2022-12-24T01:29:01.236Z,100747.56
2022-12-24T01:31:29.524Z,100751.41
2022-12-24T01:33:58.167Z,100747.13
2022-12-24T01:36:26.453Z,100762.56
2022-12-24T01:38:54.734Z,100757.50
2022-12-24T01:41:50.639Z,100761.72
2022-12-24T01:44:35.169Z,100762.84
2022-12-24T01:47:10.544Z,100771.31
2022-12-24T01:49:44.017Z,100769.72
2022-12-24T01:52:16.390Z,100761.16
2022-12-24T01:54:49.670Z,100761.53
2022-12-24T01:57:23.937Z,100763.44
2022-12-24T01:59:57.981Z,100776.53
2022-12-24T02:02:26.991Z,100775.41
2022-12-24T02:05:03.431Z,100768.31
2022-12-24T02:07:31.882Z,100768.66
2022-12-24T02:10:02.300Z,100762.06
2022-12-24T02:12:36.527Z,100780.53
2022-12-24T02:15:06.629Z,100777.03
2022-12-24T02:17:45.066Z,100785.84
2022-12-24T02:21:07.744Z,100782.34
2022-12-24T02:24:07.729Z,100794.22
2022-12-24T02:27:15.950Z,100786.78
2022-12-24T02:30:21.337Z,100793.31
2022-12-24T02:33:19.691Z,100797.16
2022-12-24T02:35:55.503Z,100803.34
2022-12-24T02:38:29.630Z,100798.31
2022-12-24T02:41:03.530Z,100810.31
2022-12-24T02:43:36.847Z,100815.03
2022-12-24T02:46:13.705Z,100811.22
2022-12-24T02:48:44.886Z,100815.91
2022-12-24T02:51:13.918Z,100815.56
2022-12-24T02:53:42.741Z,100810.94
2022-12-24T02:56:37.514Z,100819.16
2022-12-24T02:59:35.374Z,100818.09
2022-12-24T03:02:14.177Z,100816.75
2022-12-24T03:04:50.053Z,100813.41
2022-12-24T03:07:23.675Z,100812.72
2022-12-24T03:10:16.605Z,100812.44
2022-12-24T03:12:48.750Z,100811.78
2022-12-24T03:15:21.323Z,100808.34
2022-12-24T03:17:54.725Z,100806.44
2022-12-24T03:20:28.339Z,100818.03
2022-12-24T03:22:56.866Z,100814.22
2022-12-24T03:25:27.567Z,100820.72
2022-12-24T03:27:57.692Z,100814.22
2022-12-24T03:30:28.104Z,100812.19
2022-12-24T03:32:57.989Z,100819.50
2022-12-24T03:35:26.681Z,100821.03
2022-12-24T03:37:55.028Z,100824.50
2022-12-24T03:40:23.362Z,100829.91
2022-12-24T03:42:51.932Z,100840.75
2022-12-24T03:45:20.376Z,100841.53
2022-12-24T03:47:48.763Z,100843.50
2022-12-24T03:50:18.576Z,100844.28
2022-12-24T03:52:46.934Z,100846.66
2022-12-24T03:55:15.327Z,100857.47
2022-12-24T03:57:43.613Z,100860.63
2022-12-24T04:00:13.573Z,100856.00
2022-12-24T04:02:42.154Z,100856.09
2022-12-24T04:05:15.210Z,100864.63
2022-12-24T04:07:45.303Z,100864.28
2022-12-24T04:10:14.025Z,100860.88
2022-12-24T04:12:42.595Z,100872.47
2022-12-24T04:15:12.379Z,100867.06
2022-12-24T04:17:40.791Z,100860.88
2022-12-24T04:20:10.846Z,100872.47
2022-12-24T04:22:39.129Z,100875.97
2022-12-24T04:25:10.854Z,100882.50
2022-12-24T04:27:39.204Z,100879.03
2022-12-24T04:30:09.569Z,100877.47
2022-12-24T04:32:37.874Z,100874.75
2022-12-24T04:35:07.149Z,100887.94
2022-12-24T04:37:35.839Z,100877.88
2022-12-24T04:40:06.183Z,100894.22
2022-12-24T04:42:35.873Z,100888.00
2022-12-24T04:45:04.377Z,100895.00
2022-12-24T04:47:32.660Z,100894.66
2022-12-24T04:50:01.624Z,100906.69
2022-12-24T04:52:30.554Z,100902.41
2022-12-24T04:54:58.931Z,100899.69
2022-12-24T04:57:27.261Z,100915.16
2022-12-24T04:59:56.937Z,100909.38
2022-12-24T05:02:25.465Z,100897.44
2022-12-24T05:04:53.889Z,100904.75
2022-12-24T05:07:22.775Z,100892.00
2022-12-24T05:09:51.085Z,100903.97
2022-12-24T05:12:19.426Z,100900.47
2022-12-24T05:14:47.876Z,100898.56
2022-12-24T05:17:17.947Z,100903.97
2022-12-24T05:19:46.243Z,100916.38
2022-12-24T05:22:31.803Z,100905.53
2022-12-24T05:25:17.299Z,100911.31
2022-12-24T05:27:51.088Z,100922.50
2022-12-24T05:30:20.089Z,100910.09
2022-12-24T05:32:49.929Z,100908.50
2022-12-24T05:35:18.287Z,100912.34
2022-12-24T05:37:46.667Z,100913.50
2022-12-24T05:40:15.310Z,100914.28
2022-12-24T05:42:43.815Z,100919.34
2022-12-24T05:45:12.456Z,100923.59
2022-12-24T05:47:43.384Z,100928.31
2022-12-24T05:50:13.982Z,100920.19
2022-12-24T05:52:42.368Z,100919.00
2022-12-24T05:55:11.501Z,100922.81
2022-12-24T05:57:41.601Z,100929.72
2022-12-24T06:00:11.580Z,100927.72
2022-12-24T06:02:39.935Z,100935.81
2022-12-24T06:05:09.188Z,100945.50
2022-12-24T06:07:40.040Z,100936.63
2022-12-24T06:10:10.395Z,100954.06
2022-12-24T06:12:38.931Z,100938.97
2022-12-24T06:15:09.150Z,100962.19
2022-12-24T06:17:37.417Z,100962.97
2022-12-24T06:20:06.880Z,100973.44
2022-12-24T06:22:35.238Z,100970.72
2022-12-24T06:25:05.624Z,100972.31
2022-12-24T06:27:34.139Z,100973.44
2022-12-24T06:30:02.489Z,100976.13
2022-12-24T06:32:30.805Z,100976.84
2022-12-24T06:34:59.175Z,100979.88
2022-12-24T06:37:27.429Z,100985.66
2022-12-24T06:39:55.678Z,100989.47
2022-12-24T06:42:25.568Z,100991.06
2022-12-24T06:44:53.834Z,100995.34
2022-12-24T06:47:22.226Z,101007.28
2022-12-24T06:49:50.488Z,101009.88
2022-12-24T06:52:18.819Z,101002.91
2022-12-24T06:54:47.222Z,101017.13
2022-12-24T06:57:15.529Z,101022.88
2022-12-24T06:59:45.217Z,101008.91
2022-12-24T07:02:13.526Z,101006.53
2022-12-24T07:04:41.999Z,101009.59
2022-12-24T07:07:10.280Z,101013.41
2022-12-24T07:09:38.761Z,101007.59
2022-12-24T07:12:07.352Z,101007.13
2022-12-24T07:14:36.438Z,101006.69
2022-12-24T07:17:06.176Z,101009.28
2022-12-24T07:19:35.273Z,101017.75
2022-12-24T07:22:03.880Z,101022.03
2022-12-24T07:24:32.145Z,101027.00
2022-12-24T07:27:00.490Z,101029.69
2022-12-24T07:29:28.788Z,101030.13
2022-12-24T07:31:57.199Z,101040.25
2022-12-24T07:34:26.986Z,101020.66
2022-12-24T07:36:55.487Z,101043.53
2022-12-24T07:39:24.259Z,101051.28
2022-12-24T07:41:53.788Z,101051.28
2022-12-24T07:44:22.402Z,101049.72
2022-12-24T07:46:51.219Z,101055.16
2022-12-24T07:49:20.310Z,101060.56
2022-12-24T07:51:50.714Z,101059.75
2022-12-24T07:54:19.118Z,101057.84
2022-12-24T07:56:47.486Z,101059.84
2022-12-24T07:59:15.850Z,101058.38
2022-12-24T08:01:44.558Z,101070.06
2022-12-24T08:04:13.341Z,101071.31
2022-12-24T08:06:41.872Z,101077.94
2022-12-24T08:09:11.524Z,101085.72
2022-12-24T08:11:40.390Z,101084.59
2022-12-24T08:14:10.814Z,101094.72
2022-12-24T08:16:39.297Z,101088.19
2022-12-24T08:19:07.650Z,101091.00
2022-12-24T08:21:36.017Z,101104.59
2022-12-24T08:24:04.647Z,101107.78
2022-12-24T08:26:34.400Z,101108.56
2022-12-24T08:29:03.599Z,101106.19
2022-12-24T08:31:36.458Z,101114.75
2022-12-24T08:34:05.740Z,101118.66
2022-12-24T08:36:34.141Z,101118.31
2022-12-24T08:39:03.740Z,101118.78
2022-12-24T08:41:34.036Z,101118.09
2022-12-24T08:44:02.706Z,101123.94
2022-12-24T08:46:31.226Z,101125.97
2022-12-24T08:48:59.550Z,101134.53
2022-12-24T08:51:27.960Z,101135.75
2022-12-24T08:53:56.313Z,101127.63
2022-12-24T08:56:24.674Z,101141.25
2022-12-24T08:58:54.390Z,101135.53
2022-12-24T09:01:23.475Z,101148.78
2022-12-24T09:03:51.868Z,101150.72
2022-12-24T09:06:20.281Z,101152.28
2022-12-24T09:08:48.576Z,101160.09
2022-12-24T09:11:20.518Z,101159.31
2022-12-24T09:13:48.905Z,101158.81
2022-12-24T09:16:18.642Z,101172.13
2022-12-24T09:18:47.012Z,101175.97
2022-12-24T09:21:17.605Z,101175.97
2022-12-24T09:23:49.167Z,101184.09
2022-12-24T09:26:20.601Z,101199.56
2022-12-24T09:28:49.538Z,101204.97
2022-12-24T09:31:19.633Z,101206.53
2022-12-24T09:33:49.964Z,101215.47
2022-12-24T09:36:19.045Z,101215.47
2022-12-24T09:38:47.651Z,101224.78
2022-12-24T09:41:26.098Z,101230.31
2022-12-24T09:44:00.375Z,101228.06
2022-12-24T09:46:33.633Z,101238.97
2022-12-24T09:49:07.834Z,101239.06
2022-12-24T09:51:42.441Z,101231.41
2022-12-24T09:54:18.114Z,101229.13
2022-12-24T09:56:48.674Z,101231.50
2022-12-24T09:59:19.995Z,101242.41
2022-12-24T10:01:50.946Z,101243.34
2022-12-24T10:04:21.309Z,101248.41
2022-12-24T10:06:55.803Z,101242.63
2022-12-24T10:09:34.171Z,101250.75
2022-12-24T10:12:11.536Z,101254.22
2022-12-24T10:14:59.760Z,101251.91
2022-12-24T10:17:46.739Z,101266.88
2022-12-24T10:20:37.572Z,101258.44
2022-12-24T10:23:16.872Z,101259.59
2022-12-24T10:25:52.436Z,101260.38
2022-12-24T10:28:42.033Z,101257.31
2022-12-24T10:31:11.462Z,101257.31
2022-12-24T10:33:44.829Z,101258.09
2022-12-24T10:36:19.161Z,101257.31
2022-12-24T10:38:48.266Z,101270.84
2022-12-24T10:41:17.714Z,101242.63
2022-12-24T10:43:47.527Z,101255.81
2022-12-24T10:46:23.195Z,101240.34
2022-12-24T10:48:59.262Z,101250.50
2022-12-24T10:51:35.717Z,101243.53
2022-12-24T10:54:13.065Z,101252.09
2022-12-24T10:56:44.748Z,101240.47
2022-12-24T10:59:27.999Z,101238.53
2022-12-24T11:01:57.718Z,101242.03
2022-12-24T11:04:29.751Z,101244.38
2022-12-24T11:07:01.039Z,101244.94
2022-12-24T11:09:32.532Z,101243.91
2022-12-24T11:12:09.462Z,101240.94
2022-12-24T11:14:40.510Z,101237.53
2022-12-24T11:17:11.828Z,101239.28
2022-12-24T11:19:41.619Z,101236.25
2022-12-24T11:22:20.563Z,101228.25
2022-12-24T11:25:01.580Z,101233.81
2022-12-24T11:27:36.211Z,101226.09
2022-12-24T11:30:30.920Z,101239.56
2022-12-24T11:33:21.551Z,101243.13
2022-12-24T11:37:22.375Z,101243.13
2022-12-24T11:39:53.520Z,101245.06
2022-12-24T11:42:27.750Z,101251.28
2022-12-24T11:44:58.002Z,101248.13
2022-12-24T11:47:37.546Z,101252.13
2022-12-24T11:50:29.225Z,101247.50
2022-12-24T11:53:32.075Z,101245.28
2022-12-24T11:56:02.830Z,101249.78
2022-12-24T11:58:41.301Z,101255.50
2022-12-24T12:01:22.834Z,101261.94
2022-12-24T12:03:55.143Z,101266.34
2022-12-24T12:06:34.602Z,101269.25
2022-12-24T12:09:12.125Z,101266.53
2022-12-24T12:11:41.880Z,101268.75
2022-12-24T12:14:20.281Z,101259.69
2022-12-24T12:17:04.689Z,101255.72
2022-12-24T12:19:41.995Z,101259.19
2022-12-24T12:22:22.409Z,101266.19
2022-12-24T12:24:55.923Z,101269.25
2022-12-24T12:27:32.918Z,101271.50
2022-12-24T12:30:06.271Z,101276.13
2022-12-24T12:32:47.526Z,101282.97
2022-12-24T12:35:25.295Z,101284.41
2022-12-24T12:38:02.069Z,101284.66
2022-12-24T12:41:05.276Z,101288.44
2022-12-24T12:44:01.335Z,101296.59
2022-12-24T12:46:42.494Z,101299.66
2022-12-24T12:49:27.014Z,101310.50
2022-12-24T12:52:04.920Z,101300.03
2022-12-24T12:54:55.341Z,101304.56
2022-12-24T12:57:30.158Z,101298.72
2022-12-24T13:00:05.564Z,101300.63
2022-12-24T13:02:58.046Z,101303.78
2022-12-24T13:07:02.242Z,101302.66
2022-12-24T13:09:52.976Z,101303.94
2022-12-24T13:12:43.092Z,101308.22
2022-12-24T13:15:54.029Z,101315.59
2022-12-24T13:18:42.655Z,101318.03
2022-12-24T13:21:19.583Z,101317.38
2022-12-24T13:23:49.730Z,101310.97
2022-12-24T13:26:18.654Z,101306.00
2022-12-24T13:28:47.018Z,101309.09
2022-12-24T13:31:29.864Z,101300.88
2022-12-24T13:34:03.752Z,101306.28
2022-12-24T13:37:14.468Z,101303.44
2022-12-24T13:40:18.265Z,101303.81
2022-12-24T13:43:07.585Z,101318.09
2022-12-24T13:45:50.778Z,101311.03
2022-12-24T13:48:34.577Z,101314.13
2022-12-24T13:51:24.626Z,101329.00
2022-12-24T13:54:00.478Z,101324.19
2022-12-24T13:56:33.699Z,101326.31
2022-12-24T13:59:19.877Z,101332.03
2022-12-24T14:01:48.670Z,101334.22
2022-12-24T14:04:28.415Z,101330.63
2022-12-24T14:07:00.163Z,101324.34
2022-12-24T14:09:30.039Z,101330.47
2022-12-24T14:12:48.314Z,101331.59
2022-12-24T14:16:03.144Z,101328.34
2022-12-24T14:19:28.926Z,101338.66
2022-12-24T14:22:05.055Z,101346.41
2022-12-24T14:24:36.598Z,101348.19
2022-12-24T14:27:15.102Z,101363.69
2022-12-24T14:29:51.794Z,101359.78
2022-12-24T14:32:20.517Z,101363.94
2022-12-24T14:34:48.970Z,101355.38
2022-12-24T14:37:18.769Z,101360.00
2022-12-24T14:39:56.869Z,101355.38
2022-12-24T14:42:41.605Z,101357.66
2022-12-24T14:45:26.994Z,101367.63
2022-12-24T14:48:05.408Z,101370.59
2022-12-24T14:50:59.834Z,101367.78
2022-12-24T14:53:49.284Z,101373.81
2022-12-24T14:56:20.870Z,101374.84
2022-12-24T14:58:49.927Z,101388.28
2022-12-24T15:01:26.221Z,101385.38
2022-12-24T15:04:07.003Z,101396.00
2022-12-24T15:06:39.453Z,101400.88
2022-12-24T15:09:15.310Z,101400.25
2022-12-24T15:11:46.069Z,101410.88
2022-12-24T15:14:15.223Z,101423.88
2022-12-24T15:16:54.198Z,101421.41
2022-12-24T15:19:28.401Z,101430.53
2022-12-24T15:21:57.375Z,101436.53
2022-12-24T15:24:28.873Z,101427.41
2022-12-24T15:26:57.848Z,101425.25
2022-12-24T15:29:28.569Z,101421.19
2022-12-24T15:32:01.271Z,101430.22
2022-12-24T15:34:33.068Z,101433.47
2022-12-24T15:37:07.787Z,101426.22
2022-12-24T15:39:36.186Z,101432.69
2022-12-24T15:42:18.599Z,101439.44
2022-12-24T15:44:59.551Z,101451.59
2022-12-24T15:47:38.042Z,101445.94
2022-12-24T15:50:16.490Z,101444.09
2022-12-24T15:52:47.223Z,101447.69
2022-12-24T15:55:30.941Z,101441.38
2022-12-24T15:57:59.348Z,101450.50
2022-12-24T16:00:31.231Z,101453.84
2022-12-24T16:03:19.161Z,101445.63
2022-12-24T16:05:48.032Z,101442.00
2022-12-24T16:08:33.873Z,101436.00
2022-12-24T16:11:13.394Z,101435.56
2022-12-24T16:13:44.800Z,101440.81
2022-12-24T16:16:16.830Z,101448.47
2022-12-24T16:18:53.916Z,101448.34
2022-12-24T16:21:26.459Z,101445.97
2022-12-24T16:23:57.251Z,101437.25
2022-12-24T16:26:25.778Z,101443.34
2022-12-24T16:28:56.161Z,101440.50
2022-12-24T16:31:33.919Z,101436.41
2022-12-24T16:34:05.837Z,101438.19
2022-12-24T16:36:34.666Z,101434.13
2022-12-24T16:39:20.457Z,101448.16
2022-12-24T16:42:06.385Z,101449.00
2022-12-24T16:44:34.680Z,101456.69
2022-12-24T16:47:03.085Z,101467.22
2022-12-24T16:49:32.721Z,101476.59
2022-12-24T16:52:01.052Z,101476.47
2022-12-24T16:54:30.154Z,101468.22
2022-12-24T16:56:58.660Z,101475.84
2022-12-24T16:59:27.163Z,101470.44
2022-12-24T17:01:55.519Z,101472.03
2022-12-24T17:04:26.978Z,101472.19
2022-12-24T17:06:56.695Z,101472.28
2022-12-24T17:09:25.506Z,101468.97
2022-12-24T17:11:54.068Z,101469.44
2022-12-24T17:14:22.451Z,101470.81
2022-12-24T17:16:50.875Z,101465.91
2022-12-24T17:19:19.454Z,101454.09
2022-12-24T17:21:47.872Z,101446.16
2022-12-24T17:24:17.602Z,101448.66
2022-12-24T17:26:45.988Z,101456.09
2022-12-24T17:29:15.146Z,101458.19
2022-12-24T17:31:43.477Z,101448.94
2022-12-24T17:34:11.934Z,101458.28
2022-12-24T17:36:40.382Z,101460.66
2022-12-24T17:39:08.724Z,101457.94
2022-12-24T17:41:38.552Z,101450.63
2022-12-24T17:44:08.994Z,101471.63
2022-12-24T17:46:37.515Z,101472.41
2022-12-24T17:49:05.887Z,101472.88
2022-12-24T17:51:35.858Z,101486.38
2022-12-24T17:54:07.365Z,101491.78
2022-12-24T17:56:37.147Z,101487.81
2022-12-24T17:59:07.920Z,101496.56
2022-12-24T18:01:36.279Z,101483.59
2022-12-24T18:04:05.339Z,101469.63
2022-12-24T18:06:33.729Z,101469.63
2022-12-24T18:09:02.049Z,101473.91
2022-12-24T18:11:33.275Z,101475.00
2022-12-24T18:14:05.290Z,101465.78
2022-12-24T18:16:36.445Z,101469.63
2022-12-24T18:19:08.281Z,101468.03
2022-12-24T18:21:36.601Z,101468.81
2022-12-24T18:24:06.097Z,101462.31
2022-12-24T18:26:34.641Z,101459.59
2022-12-24T18:29:05.766Z,101469.63
2022-12-24T18:31:34.573Z,101467.56
2022-12-24T18:34:05.050Z,101464.72
2022-12-24T18:36:33.942Z,101469.19
2022-12-24T18:39:02.656Z,101475.09
2022-12-24T18:41:32.172Z,101475.31
2022-12-24T18:44:00.832Z,101461.50
2022-12-24T18:46:34.010Z,101456.63
2022-12-24T18:49:03.039Z,101471.75
2022-12-24T18:51:34.369Z,101460.69
2022-12-24T18:54:03.452Z,101463.53
2022-12-24T18:56:32.824Z,101458.31
2022-12-24T18:59:03.286Z,101457.72
2022-12-24T19:01:35.785Z,101457.56
2022-12-24T19:04:04.752Z,101461.84
2022-12-24T19:06:33.230Z,101463.09
2022-12-24T19:09:02.145Z,101463.91
2022-12-24T19:11:33.566Z,101461.66
2022-12-24T19:14:03.488Z,101473.72
2022-12-24T19:16:38.955Z,101473.84
2022-12-24T19:19:10.755Z,101471.63
2022-12-24T19:21:39.068Z,101478.78
2022-12-24T19:24:10.541Z,101494.63
2022-12-24T19:26:39.118Z,101487.47
2022-12-24T19:29:07.591Z,101485.25
2022-12-24T19:31:37.345Z,101483.47
2022-12-24T19:34:05.725Z,101483.63
2022-12-24T19:36:35.145Z,101474.56
2022-12-24T19:39:03.464Z,101482.47
2022-12-24T19:41:32.551Z,101481.81
2022-12-24T19:44:02.552Z,101483.88
2022-12-24T19:46:33.699Z,101481.63
2022-12-24T19:49:06.254Z,101479.09
2022-12-24T19:51:35.999Z,101484.59
2022-12-24T19:54:06.088Z,101485.09
2022-12-24T19:56:35.021Z,101483.31
2022-12-24T19:59:05.261Z,101485.81
2022-12-24T20:01:36.307Z,101489.78
2022-12-24T20:04:06.534Z,101488.78
2022-12-24T20:06:36.563Z,101490.84
2022-12-24T20:09:07.418Z,101485.59
2022-12-24T20:11:36.720Z,101474.41
2022-12-24T20:14:07.322Z,101477.59
2022-12-24T20:16:36.593Z,101481.09
2022-12-24T20:19:08.020Z,101483.47
2022-12-24T20:21:38.034Z,101497.44
2022-12-24T20:24:07.454Z,101490.94
2022-12-24T20:26:36.254Z,101499.06
2022-12-24T20:29:06.041Z,101490.94
2022-12-24T20:31:35.005Z,101506.03
2022-12-24T20:34:07.445Z,101504.09
2022-12-24T20:36:37.977Z,101505.25
2022-12-24T20:39:07.992Z,101499.50
2022-12-24T20:41:37.265Z,101511.88
2022-12-24T20:44:05.652Z,101508.84
2022-12-24T20:46:34.269Z,101516.66
2022-12-24T20:49:02.649Z,101520.94
2022-12-24T20:51:32.336Z,101515.53
2022-12-24T20:54:02.060Z,101527.94
2022-12-24T20:56:31.868Z,101520.59
2022-12-24T20:59:01.963Z,101518.69
2022-12-24T21:01:30.931Z,101521.41
2022-12-24T21:04:07.671Z,101522.53
2022-12-24T21:06:37.933Z,101527.13
2022-12-24T21:09:07.021Z,101529.06
2022-12-24T21:11:53.193Z,101535.66
2022-12-24T21:14:24.608Z,101536.47
2022-12-24T21:16:55.259Z,101530.25
2022-12-24T21:19:26.251Z,101526.44
2022-12-24T21:21:56.199Z,101516.41
2022-12-24T21:24:24.463Z,101511.00
2022-12-24T21:26:52.839Z,101515.78
2022-12-24T21:29:21.214Z,101522.78
2022-12-24T21:31:49.636Z,101525.47
2022-12-24T21:34:18.023Z,101511.19
2022-12-24T21:36:46.320Z,101500.69
2022-12-24T21:39:16.499Z,101498.47
2022-12-24T21:41:44.794Z,101497.00
2022-12-24T21:44:13.171Z,101490.47
2022-12-24T21:46:41.698Z,101493.63
2022-12-24T21:49:29.521Z,101484.06
2022-12-24T21:51:57.793Z,101477.53
2022-12-24T21:54:30.499Z,101471.03
2022-12-24T21:57:19.323Z,101470.34
2022-12-24T21:59:49.843Z,101460.78
2022-12-24T22:02:18.590Z,101458.41
2022-12-24T22:04:47.260Z,101453.00
2022-12-24T22:07:40.028Z,101454.13
2022-12-24T22:10:29.259Z,101447.59
2022-12-24T22:12:59.774Z,101449.84
2022-12-24T22:15:28.375Z,101456.81
2022-12-24T22:17:56.683Z,101443.47
2022-12-24T22:20:25.007Z,101440.75
2022-12-24T22:22:54.115Z,101439.97
2022-12-24T22:25:23.791Z,101434.56
2022-12-24T22:27:52.348Z,101429.47
2022-12-24T22:30:20.900Z,101429.16
2022-12-24T22:32:49.292Z,101430.75
2022-12-24T22:35:17.978Z,101428.50
2022-12-24T22:37:46.430Z,101426.56
2022-12-24T22:40:15.243Z,101430.84
2022-12-24T22:42:44.872Z,101430.06
2022-12-24T22:45:18.519Z,101447.84
2022-12-24T22:47:48.561Z,101434.56
2022-12-24T22:50:17.054Z,101447.84
2022-12-24T22:52:45.538Z,101437.72
2022-12-24T22:55:13.814Z,101447.41
2022-12-24T22:57:42.063Z,101443.59
2022-12-24T23:00:18.247Z,101437.03
2022-12-24T23:02:46.684Z,101440.88
2022-12-24T23:05:16.350Z,101433.09
2022-12-24T23:07:44.741Z,101429.16
2022-12-24T23:10:13.067Z,101435.22
2022-12-24T23:12:58.970Z,101422.81
2022-12-24T23:15:28.722Z,101428.88
2022-12-24T23:17:57.092Z,101437.00
2022-12-24T23:20:25.378Z,101440.03
2022-12-24T23:22:53.725Z,101431.78
2022-12-24T23:25:21.992Z,101447.09
2022-12-24T23:27:50.506Z,101458.25
2022-12-24T23:30:19.820Z,101455.53
2022-12-24T23:32:49.541Z,101450.47
2022-12-24T23:35:18.232Z,101458.56
2022-12-24T23:37:46.601Z,101453.97
2022-12-24T23:40:15.352Z,101465.56
2022-12-24T23:42:43.648Z,101463.66
2022-12-24T23:45:12.434Z,101472.53
2022-12-24T23:47:41.796Z,101478.41
2022-12-24T23:50:12.546Z,101480.00
2022-12-24T23:52:43.562Z,101471.88
2022-12-24T23:55:11.648Z,101469.63
2022-12-24T23:57:39.925Z,101475.50
